Time;durP1;ratioP1;P1;durP2;ratioP2;P2;SDS_P1;SDS_P2;PMS_P1;PMS_P2;Temp;Humidity;BMP_temperature;BMP_pressure;BME280_temperature;BME280_humidity;BME280_pressure;Samples;Min_cycle;Max_cycle;Signal;HPM_P1;HPM_P2
2022/07/27 00:00:58;;;;;;;;;;;14.10;99.90;;;;;;5062146;28;20032;-64
2022/07/27 00:03:24;;;;;;;3.65;1.30;;;14.10;99.90;;;;;;5059164;28;19927;-63
2022/07/27 00:05:49;;;;;;;;;;;14.20;99.90;;;;;;5062358;28;20043;-63
2022/07/27 00:08:15;;;;;;;12.60;1.60;;;14.10;99.90;;;;;;5061834;28;20011;-64
2022/07/27 00:10:40;;;;;;;;;;;14.00;99.90;;;;;;5062962;28;20484;-63
2022/07/27 00:13:06;;;;;;;7.53;1.92;;;13.90;99.90;;;;;;5062150;28;19921;-63
2022/07/27 00:15:32;;;;;;;;;;;13.80;99.90;;;;;;5061994;28;20041;-64
2022/07/27 00:17:59;;;;;;;6.93;1.63;;;13.90;99.90;;;;;;5054622;28;20376;-63
2022/07/27 00:20:30;;;;;;;12.90;1.80;;;13.90;99.90;;;;;;5049023;28;20036;-63
2022/07/27 00:22:56;;;;;;;6.18;1.50;;;13.80;99.90;;;;;;5049257;28;20025;-63
2022/07/27 00:25:22;;;;;;;8.43;1.58;;;13.90;99.90;;;;;;5048386;28;20036;-62
2022/07/27 00:27:48;;;;;;;5.90;1.33;;;14.00;99.90;;;;;;5048886;28;20045;-64
2022/07/27 00:30:14;;;;;;;;;;;14.00;99.90;;;;;;5045196;28;20048;-63
2022/07/27 00:32:40;;;;;;;11.73;2.38;;;14.10;99.90;;;;;;5046559;28;19916;-63
2022/07/27 00:35:06;;;;;;;6.28;1.80;;;14.10;99.90;;;;;;5048527;28;20576;-63
2022/07/27 00:37:32;;;;;;;7.68;1.38;;;14.20;99.90;;;;;;5047645;28;20108;-64
2022/07/27 00:39:57;;;;;;;;;;;14.20;99.90;;;;;;5049877;28;20123;-64
2022/07/27 00:42:26;;;;;;;11.25;1.95;;;14.20;99.90;;;;;;5049180;28;20663;-63
2022/07/27 00:44:54;;;;;;;10.25;1.35;;;14.20;99.90;;;;;;5047746;28;20501;-63
2022/07/27 00:47:20;;;;;;;9.98;2.42;;;14.20;99.90;;;;;;5048760;28;20088;-63
2022/07/27 00:49:46;;;;;;;9.48;1.63;;;14.20;99.90;;;;;;5048030;28;20033;-64
2022/07/27 00:52:12;;;;;;;;;;;14.20;99.90;;;;;;5049398;28;20124;-63
2022/07/27 00:54:38;;;;;;;6.65;1.52;;;14.20;99.90;;;;;;5048703;28;20018;-63
2022/07/27 00:57:04;;;;;;;6.80;1.27;;;14.30;99.90;;;;;;5048328;28;20131;-63
2022/07/27 00:59:30;;;;;;;;;;;14.20;99.90;;;;;;5046471;28;20108;-64
2022/07/27 01:01:56;;;;;;;3.67;1.13;;;14.20;99.90;;;;;;5047323;28;19928;-64
2022/07/27 01:04:21;;;;;;;;;;;14.20;99.90;;;;;;5048800;28;20033;-64
2022/07/27 01:06:47;;;;;;;12.18;2.45;;;14.30;99.90;;;;;;5045115;28;20623;-63
2022/07/27 01:11:57;;;;;;;5.53;1.20;;;14.30;99.90;;;;;;5048493;28;20035;-63
2022/07/27 01:14:23;;;;;;;;;;;14.30;99.90;;;;;;5048981;28;20128;-63
2022/07/27 01:16:50;;;;;;;7.60;1.40;;;14.30;99.90;;;;;;5044682;28;20012;-63
2022/07/27 01:19:16;;;;;;;6.03;1.40;;;14.20;99.90;;;;;;5047874;28;20040;-64
2022/07/27 01:21:42;;;;;;;8.50;1.33;;;14.20;99.90;;;;;;5047777;28;20036;-64
2022/07/27 01:24:08;;;;;;;;;;;14.10;99.90;;;;;;5038464;28;20059;-64
2022/07/27 01:26:37;;;;;;;6.45;1.23;;;14.10;99.90;;;;;;5047765;28;19921;-63
2022/07/27 01:29:04;;;;;;;7.47;1.90;;;13.90;99.90;;;;;;5042878;28;20116;-63
2022/07/27 01:31:30;;;;;;;11.35;1.35;;;13.90;99.90;;;;;;5043755;28;20875;-63
2022/07/27 01:33:55;;;;;;;;;;;13.90;99.90;;;;;;5048877;28;20120;-63
2022/07/27 01:36:21;;;;;;;5.55;1.27;;;13.80;99.90;;;;;;5047011;28;20024;-63
2022/07/27 01:38:47;;;;;;;;;;;13.90;99.90;;;;;;5048055;28;20040;-63
2022/07/27 01:41:13;;;;;;;6.53;1.05;;;13.90;99.90;;;;;;5047920;28;19943;-63
2022/07/27 01:43:39;;;;;;;4.82;1.35;;;13.90;99.90;;;;;;5046440;28;20037;-64
2022/07/27 01:46:04;;;;;;;5.93;1.10;;;13.90;99.90;;;;;;5047519;28;20053;-64
2022/07/27 01:48:30;;;;;;;;;;;14.00;99.90;;;;;;5048501;28;20043;-63
2022/07/27 01:50:56;;;;;;;9.60;1.40;;;13.90;99.90;;;;;;5047210;28;19966;-63
2022/07/27 01:53:22;;;;;;;;;;;13.90;99.90;;;;;;5048046;28;20128;-64
2022/07/27 01:55:49;;;;;;;2.40;0.88;;;13.90;99.90;;;;;;5047816;28;20003;-64
2022/07/27 01:58:15;;;;;;;8.25;1.55;;;13.90;99.90;;;;;;5043803;28;20036;-64
2022/07/27 02:00:40;;;;;;;;;;;13.90;99.90;;;;;;5045868;28;20451;-64
2022/07/27 02:03:08;;;;;;;3.83;1.00;;;13.80;99.90;;;;;;5048016;28;19920;-64
2022/07/27 02:05:34;;;;;;;6.28;1.50;;;13.80;99.90;;;;;;5025787;28;20049;-64
2022/07/27 02:08:01;;;;;;;8.30;1.38;;;13.80;99.90;;;;;;5042171;28;20041;-63
2022/07/27 02:10:27;;;;;;;2.03;1.20;;;13.80;99.90;;;;;;5045613;28;20047;-63
2022/07/27 02:12:52;;;;;;;;;;;13.80;99.90;;;;;;5045962;28;20041;-63
2022/07/27 02:15:21;;;;;;;4.00;1.02;;;13.70;99.90;;;;;;5046425;28;19917;-64
2022/07/27 02:17:48;;;;;;;4.05;1.05;;;13.70;99.90;;;;;;5045113;28;20045;-62
2022/07/27 02:20:16;;;;;;;6.70;1.33;;;13.60;99.90;;;;;;5043937;28;20033;-63
2022/07/27 02:22:44;;;;;;;4.47;1.17;;;13.60;99.90;;;;;;5047271;28;20086;-64
2022/07/27 02:25:11;;;;;;;8.15;1.10;;;13.50;99.90;;;;;;5046624;28;20037;-63
2022/07/27 02:27:37;;;;;;;5.63;1.35;;;13.50;99.90;;;;;;5046886;28;20049;-64
2022/07/27 02:30:03;;;;;;;;;;;13.50;99.90;;;;;;5047366;28;20485;-64
2022/07/27 02:32:28;;;;;;;4.68;0.85;;;13.50;99.90;;;;;;5046264;28;19987;-63
2022/07/27 02:34:54;;;;;;;;;;;13.50;99.90;;;;;;5046163;28;20060;-63
2022/07/27 02:37:19;;;;;;;4.93;1.00;;;13.50;99.90;;;;;;5047253;28;19916;-63
2022/07/27 02:39:45;;;;;;;;;;;13.60;99.90;;;;;;5046637;28;20037;-63
2022/07/27 02:42:10;;;;;;;4.93;1.17;;;13.50;99.90;;;;;;5046110;28;20277;-63
2022/07/27 02:44:36;;;;;;;;;;;13.50;99.90;;;;;;5046911;28;20043;-64
2022/07/27 02:47:01;;;;;;;5.60;1.35;;;13.50;99.90;;;;;;5046451;28;19920;-63
2022/07/27 02:49:27;;;;;;;11.38;1.55;;;13.50;99.90;;;;;;5046238;28;20116;-62
2022/07/27 02:51:53;;;;;;;;;;;13.40;99.90;;;;;;5046921;28;20041;-64
2022/07/27 02:54:20;;;;;;;6.30;1.20;;;13.40;99.90;;;;;;5046418;28;19920;-63
2022/07/27 02:56:47;;;;;;;10.60;1.52;;;13.20;99.90;;;;;;5046361;28;20055;-63
2022/07/27 02:59:13;;;;;;;4.45;1.50;;;13.30;99.90;;;;;;5046900;28;20049;-64
2022/07/27 03:01:39;;;;;;;4.78;1.35;;;13.20;99.90;;;;;;5046686;28;20064;-63
2022/07/27 03:04:04;;;;;;;;;;;13.20;99.90;;;;;;5047750;28;20071;-64
2022/07/27 03:06:30;;;;;;;4.72;1.38;;;13.20;99.90;;;;;;5046621;28;20976;-63
2022/07/27 03:08:55;;;;;;;;;;;13.20;99.90;;;;;;5041013;28;20037;-63
2022/07/27 03:11:21;;;;;;;8.07;1.42;;;13.30;99.90;;;;;;5045689;28;20015;-64
2022/07/27 03:13:46;;;;;;;;;;;13.30;99.90;;;;;;5046518;28;20091;-64
2022/07/27 03:16:12;;;;;;;3.30;0.98;;;13.30;99.90;;;;;;5046056;28;20355;-64
2022/07/27 03:18:37;;;;;;;;;;;13.20;99.90;;;;;;5047211;28;20500;-63
2022/07/27 03:21:03;;;;;;;6.47;1.30;;;13.30;99.90;;;;;;5034058;28;20420;-63
2022/07/27 03:23:29;;;;;;;;;;;13.30;99.90;;;;;;5043883;28;20445;-64
2022/07/27 03:25:55;;;;;;;1.85;0.95;;;13.30;99.90;;;;;;5046187;28;19935;-63
2022/07/27 03:28:20;;;;;;;5.40;1.38;;;13.30;99.90;;;;;;5046166;28;20047;-63
2022/07/27 03:30:46;;;;;;;;;;;13.30;99.90;;;;;;5045942;28;20405;-63
2022/07/27 03:33:11;;;;;;;9.02;1.60;;;13.30;99.90;;;;;;5047112;28;19925;-63
2022/07/27 03:35:37;;;;;;;;;;;13.20;99.90;;;;;;5046311;28;20479;-62
2022/07/27 03:38:02;;;;;;;4.07;1.30;;;13.20;99.90;;;;;;5045400;28;19917;-62
2022/07/27 03:40:30;;;;;;;;;;;13.10;99.90;;;;;;5045974;28;20037;-64
2022/07/27 03:42:56;;;;;;;5.38;1.05;;;13.00;99.90;;;;;;5046546;28;20628;-64
2022/07/27 03:45:21;;;;;;;;;;;13.00;99.90;;;;;;5046113;28;20037;-63
2022/07/27 03:47:47;;;;;;;3.95;1.20;;;12.90;99.90;;;;;;5045829;28;19921;-64
2022/07/27 03:50:12;;;;;;;11.10;1.33;;;12.80;99.90;;;;;;5045479;28;20033;-64
2022/07/27 03:52:38;;;;;;;;;;;12.90;99.90;;;;;;5047367;28;20045;-64
2022/07/27 03:55:04;;;;;;;7.57;1.25;;;12.90;99.90;;;;;;5049799;28;20012;-64
2022/07/27 03:57:30;;;;;;;3.45;1.10;;;12.90;99.90;;;;;;5045973;28;20562;-63
2022/07/27 03:59:55;;;;;;;;;;;12.90;99.90;;;;;;5050128;28;20045;-64
2022/07/27 04:02:21;;;;;;;10.85;1.40;;;12.90;99.90;;;;;;5049145;28;19920;-63
2022/07/27 04:04:46;;;;;;;;;;;12.80;99.90;;;;;;5050671;28;20078;-63
2022/07/27 04:07:12;;;;;;;8.52;1.10;;;12.80;99.90;;;;;;5048646;28;20039;-64
2022/07/27 04:09:37;;;;;;;;;;;12.80;99.90;;;;;;5049671;28;20048;-63
2022/07/27 04:12:03;;;;;;;4.00;1.35;;;12.80;99.90;;;;;;5049084;28;20407;-63
2022/07/27 04:14:29;;;;;;;;;;;12.80;99.90;;;;;;5050111;28;20487;-64
2022/07/27 04:16:54;;;;;;;7.65;1.23;;;12.80;99.90;;;;;;5048330;28;19921;-63
2022/07/27 04:19:20;;;;;;;;;;;12.90;99.90;;;;;;5050232;28;20109;-63
2022/07/27 04:21:45;;;;;;;5.15;1.13;;;12.80;99.90;;;;;;5048677;28;20376;-63
2022/07/27 04:24:11;;;;;;;;;;;12.70;99.90;;;;;;5049363;28;20048;-63
2022/07/27 04:26:37;;;;;;;7.68;1.30;;;12.80;99.90;;;;;;5048762;28;20316;-63
2022/07/27 04:29:02;;;;;;;;;;;12.80;99.90;;;;;;5049743;28;20048;-63
2022/07/27 04:31:28;;;;;;;6.05;1.88;;;12.70;99.90;;;;;;5048681;28;20401;-64
2022/07/27 04:33:53;;;;;;;;;;;12.80;99.90;;;;;;5049560;28;20033;-63
2022/07/27 04:36:19;;;;;;;3.50;1.05;;;12.80;99.90;;;;;;5048982;28;20313;-64
2022/07/27 04:38:44;;;;;;;;;;;12.80;99.90;;;;;;5049135;28;20063;-63
2022/07/27 04:41:10;;;;;;;6.85;1.00;;;12.80;99.90;;;;;;5048519;28;20759;-64
2022/07/27 04:43:36;;;;;;;;;;;12.80;99.90;;;;;;5048992;28;20037;-64
2022/07/27 04:46:05;;;;;;;6.28;1.67;;;12.90;99.90;;;;;;5048425;28;20016;-63
2022/07/27 04:48:32;;;;;;;3.55;1.00;;;12.90;99.90;;;;;;5048816;28;20680;-63
2022/07/27 04:50:58;;;;;;;5.95;1.00;;;13.20;99.90;;;;;;5047998;28;20496;-63
2022/07/27 04:53:23;;;;;;;;;;;13.30;99.90;;;;;;5048552;28;20056;-63
2022/07/27 04:55:49;;;;;;;10.77;1.77;;;13.30;99.90;;;;;;5048434;28;19920;-63
2022/07/27 04:58:14;;;;;;;;;;;13.20;99.90;;;;;;5048514;28;20029;-63
2022/07/27 05:00:42;;;;;;;6.00;1.38;;;13.30;99.90;;;;;;5047972;28;19948;-63
2022/07/27 05:03:08;;;;;;;9.15;1.55;;;13.40;99.90;;;;;;5048317;28;20036;-64
2022/07/27 05:05:34;;;;;;;6.05;1.88;;;13.40;99.90;;;;;;5047612;28;20037;-63
2022/07/27 05:08:00;;;;;;;;;;;13.40;99.90;;;;;;5039275;28;20582;-63
2022/07/27 05:10:25;;;;;;;9.48;1.77;;;13.40;99.90;;;;;;5047294;28;20560;-63
2022/07/27 05:12:51;;;;;;;;;;;13.80;99.90;;;;;;5043577;28;20382;-63
2022/07/27 05:15:16;;;;;;;9.27;2.10;;;14.20;99.90;;;;;;5048300;28;19968;-63
2022/07/27 05:17:42;;;;;;;7.78;2.05;;;14.10;99.90;;;;;;5048025;28;20043;-63
2022/07/27 05:20:08;;;;;;;;;;;13.90;99.90;;;;;;5048257;28;20517;-64
2022/07/27 05:22:34;;;;;;;7.78;2.13;;;13.80;99.90;;;;;;5041015;28;20377;-64
2022/07/27 05:24:59;;;;;;;;;;;13.60;99.90;;;;;;5048692;28;20102;-64
2022/07/27 05:27:25;;;;;;;8.52;3.00;;;13.60;99.90;;;;;;5047567;28;19960;-64
2022/07/27 05:29:50;;;;;;;;;;;13.60;99.90;;;;;;5045185;28;20037;-63
2022/07/27 05:32:16;;;;;;;9.82;2.20;;;13.50;99.90;;;;;;5045498;28;19982;-63
2022/07/27 05:34:42;;;;;;;;;;;13.50;99.90;;;;;;5048810;28;20037;-63
2022/07/27 05:37:08;;;;;;;7.78;1.90;;;13.40;99.90;;;;;;5047063;28;19916;-64
2022/07/27 05:39:33;;;;;;;;;;;13.40;99.90;;;;;;5047833;28;20047;-64
2022/07/27 05:41:59;;;;;;;10.25;2.40;;;13.50;99.90;;;;;;5047501;28;19917;-64
2022/07/27 05:44:25;;;;;;;;;;;13.40;99.90;;;;;;5048241;28;20059;-64
2022/07/27 05:46:50;;;;;;;6.88;1.98;;;13.60;99.90;;;;;;5046635;28;20315;-63
2022/07/27 05:49:16;;;;;;;;;;;13.50;99.90;;;;;;5047563;28;20476;-64
2022/07/27 05:51:42;;;;;;;4.80;2.10;;;13.50;99.90;;;;;;5045744;28;19921;-64
2022/07/27 05:54:08;;;;;;;7.28;2.13;;;13.70;99.90;;;;;;5047020;28;20052;-64
2022/07/27 05:56:34;;;;;;;;;;;14.00;99.90;;;;;;5046768;28;20045;-64
2022/07/27 05:58:59;;;;;;;4.07;2.00;;;14.10;99.90;;;;;;5047550;28;19917;-64
2022/07/27 06:01:25;;;;;;;;;;;14.10;99.90;;;;;;5043220;28;20048;-63
2022/07/27 06:03:50;;;;;;;6.55;2.42;;;14.30;99.90;;;;;;5046246;28;20320;-64
2022/07/27 06:09:00;;;;;;;13.90;2.33;;;14.20;99.90;;;;;;5033555;28;19921;-63
2022/07/27 06:11:26;;;;;;;;;;;14.10;99.90;;;;;;5046361;28;20815;-64
2022/07/27 06:13:51;;;;;;;7.75;2.00;;;14.00;99.90;;;;;;5046490;28;20321;-64
2022/07/27 06:16:17;;;;;;;;;;;13.80;99.90;;;;;;5046110;28;20067;-64
2022/07/27 06:18:43;;;;;;;7.25;2.20;;;13.80;99.90;;;;;;5046498;28;19916;-63
2022/07/27 06:21:09;;;;;;;;;;;13.60;99.90;;;;;;5046131;28;20041;-62
2022/07/27 06:23:35;;;;;;;6.65;1.60;;;13.40;99.90;;;;;;5046360;28;19959;-63
2022/07/27 06:26:00;;;;;;;;;;;13.40;99.90;;;;;;5047359;28;20077;-63
2022/07/27 06:28:26;;;;;;;7.85;2.35;;;13.50;99.90;;;;;;5047164;28;20024;-64
2022/07/27 06:30:54;;;;;;;;;;;13.50;99.90;;;;;;5043731;28;20040;-64
2022/07/27 06:33:26;;;;;;;5.88;1.70;;;13.60;99.90;;;;;;5046469;28;20407;-63
2022/07/27 06:35:56;;;;;;;10.95;2.67;;;13.70;99.90;;;;;;5047234;28;20045;-64
2022/07/27 06:38:23;;;;;;;4.20;1.60;;;13.90;99.90;;;;;;5046727;28;20073;-64
2022/07/27 06:40:51;;;;;;;3.95;1.60;;;14.10;99.90;;;;;;5046468;28;20661;-63
2022/07/27 06:43:21;;;;;;;2.90;1.13;;;14.30;99.90;;;;;;5046990;28;20397;-64
2022/07/27 06:45:48;;;;;;;4.85;1.23;;;14.40;99.90;;;;;;5046492;28;20519;-64
2022/07/27 06:48:14;;;;;;;10.13;1.40;;;14.40;99.90;;;;;;5046589;28;20579;-63
2022/07/27 06:50:39;;;;;;;4.25;1.00;;;14.40;99.90;;;;;;5046151;28;20508;-64
2022/07/27 06:53:05;;;;;;;;;;;14.50;99.90;;;;;;5047433;28;20040;-64
2022/07/27 06:55:30;;;;;;;3.15;1.20;;;14.40;99.90;;;;;;5046213;28;19948;-63
2022/07/27 06:57:56;;;;;;;;;;;14.40;99.90;;;;;;5046671;28;20126;-64
2022/07/27 07:00:21;;;;;;;2.95;0.98;;;14.50;99.90;;;;;;5046199;28;19931;-64
2022/07/27 07:02:51;;;;;;;;;;;14.40;99.90;;;;;;5047353;28;20801;-64
2022/07/27 07:05:17;;;;;;;5.68;1.30;;;14.20;99.90;;;;;;5046532;28;20432;-62
2022/07/27 07:07:42;;;;;;;;;;;14.10;99.90;;;;;;5046369;28;20190;-64
2022/07/27 07:10:08;;;;;;;3.22;1.00;;;14.00;99.90;;;;;;5046374;28;20385;-65
2022/07/27 07:12:34;;;;;;;;;;;13.90;99.90;;;;;;5046844;28;20524;-64
2022/07/27 07:14:59;;;;;;;4.80;1.13;;;13.80;99.90;;;;;;5041345;28;20022;-64
2022/07/27 07:17:25;;;;;;;;;;;13.60;99.90;;;;;;5036473;28;20049;-63
2022/07/27 07:19:50;;;;;;;5.43;1.25;;;13.60;99.90;;;;;;5045389;28;19932;-63
2022/07/27 07:22:16;;;;;;;;;;;13.60;99.90;;;;;;5046099;28;20048;-63
2022/07/27 07:24:41;;;;;;;5.18;1.10;;;13.80;99.90;;;;;;5045982;28;19930;-64
2022/07/27 07:27:07;;;;;;;;;;;14.00;99.90;;;;;;5045554;28;20037;-63
2022/07/27 07:29:32;;;;;;;3.42;0.60;;;14.30;99.90;;;;;;5049975;28;19963;-64
2022/07/27 07:31:58;;;;;;;;;;;14.60;99.90;;;;;;5049832;28;20589;-64
2022/07/27 07:34:23;;;;;;;3.35;0.80;;;14.40;99.90;;;;;;5049943;28;19927;-63
2022/07/27 07:36:49;;;;;;;;;;;14.30;99.90;;;;;;5049900;28;20045;-64
2022/07/27 07:39:16;;;;;;;3.55;1.48;;;14.10;99.90;;;;;;5050271;28;19920;-63
2022/07/27 07:41:41;;;;;;;3.45;0.75;;;14.20;99.90;;;;;;5049888;28;20047;-64
2022/07/27 07:44:08;;;;;;;;;;;14.40;99.90;;;;;;5049886;28;20033;-64
2022/07/27 07:46:35;;;;;;;2.15;0.80;;;14.70;99.90;;;;;;5049266;28;19928;-63
2022/07/27 07:49:01;;;;;;;4.43;0.90;;;15.10;99.90;;;;;;5049339;28;20052;-64
2022/07/27 07:51:27;;;;;;;3.75;0.60;;;15.10;99.90;;;;;;5049293;28;20566;-62
2022/07/27 07:53:53;;;;;;;;;;;14.90;99.90;;;;;;5047895;28;20038;-64
2022/07/27 07:56:18;;;;;;;2.75;0.60;;;14.70;99.90;;;;;;5049248;28;19967;-63
2022/07/27 07:58:43;;;;;;;;;;;14.80;99.90;;;;;;5050559;28;20479;-64
2022/07/27 08:01:11;;;;;;;3.03;0.63;;;14.60;99.90;;;;;;5045779;28;20495;-64
2022/07/27 08:03:36;;;;;;;2.22;1.00;;;14.60;99.90;;;;;;5049804;28;20638;-65
2022/07/27 08:06:02;;;;;;;;;;;14.50;99.90;;;;;;5049500;28;20068;-63
2022/07/27 08:08:29;;;;;;;2.85;0.73;;;14.40;99.90;;;;;;5039745;28;19979;-63
2022/07/27 08:10:54;;;;;;;2.05;0.70;;;14.40;99.90;;;;;;5046982;28;20041;-64
2022/07/27 08:13:20;;;;;;;;;;;14.30;99.90;;;;;;5047146;28;20116;-62
2022/07/27 08:15:46;;;;;;;5.93;1.10;;;14.10;99.90;;;;;;5046477;28;20324;-63
2022/07/27 08:18:12;;;;;;;;;;;13.80;99.90;;;;;;5046591;28;20045;-64
2022/07/27 08:20:38;;;;;;;3.28;0.80;;;13.80;99.90;;;;;;5045852;28;19916;-63
2022/07/27 08:23:03;;;;;;;;;;;13.80;99.90;;;;;;5047411;28;20049;-64
2022/07/27 08:25:30;;;;;;;3.50;0.63;;;13.80;99.90;;;;;;5048795;28;19917;-64
2022/07/27 08:27:55;;;;;;;3.25;0.80;;;13.70;99.90;;;;;;5049252;28;20127;-63
2022/07/27 08:30:21;;;;;;;;;;;13.80;99.90;;;;;;5048976;28;20240;-62
2022/07/27 08:32:46;;;;;;;4.70;0.77;;;13.70;99.90;;;;;;5048521;28;20292;-65
2022/07/27 08:35:14;;;;;;;;;;;13.80;99.90;;;;;;5049718;28;20069;-63
2022/07/27 08:37:39;;;;;;;9.23;1.35;;;13.90;99.90;;;;;;5049087;28;19916;-63
2022/07/27 08:40:06;;;;;;;;;;;14.00;99.90;;;;;;5049338;28;20082;-63
2022/07/27 08:42:31;;;;;;;2.00;0.67;;;14.00;99.90;;;;;;5051235;28;19916;-63
2022/07/27 08:45:00;;;;;;;;;;;14.10;99.90;;;;;;5049499;28;20336;-64
2022/07/27 08:47:26;;;;;;;3.42;0.70;;;14.20;99.90;;;;;;5049141;28;20012;-63
2022/07/27 08:49:52;;;;;;;5.35;1.10;;;14.30;99.90;;;;;;5049254;28;20488;-64
2022/07/27 08:52:18;;;;;;;;;;;14.30;99.90;;;;;;5050549;28;20036;-64
2022/07/27 08:54:45;;;;;;;4.60;1.00;;;14.30;99.90;;;;;;5051296;28;19927;-63
2022/07/27 08:57:11;;;;;;;10.15;1.75;;;14.20;99.90;;;;;;5050009;28;20283;-63
2022/07/27 08:59:37;;;;;;;;;;;14.20;99.90;;;;;;5048782;28;20045;-63
2022/07/27 09:02:04;;;;;;;3.25;0.70;;;14.20;99.90;;;;;;5029643;28;20019;-63
2022/07/27 09:04:30;;;;;;;3.35;0.60;;;14.20;99.90;;;;;;5032465;28;20032;-64
2022/07/27 09:06:55;;;;;;;5.75;0.90;;;14.20;99.90;;;;;;5041491;28;20108;-63
2022/07/27 09:09:21;;;;;;;;;;;14.10;99.90;;;;;;5028278;28;20144;-64
2022/07/27 09:12:05;;;;;;;2.97;0.80;;;14.10;99.90;;;;;;5030870;28;19920;-63
2022/07/27 09:14:34;;;;;;;3.25;0.85;;;14.20;99.90;;;;;;5047461;28;20788;-64
2022/07/27 09:17:18;;;;;;;5.38;1.00;;;14.20;99.90;;;;;;5048652;28;20044;-63
2022/07/27 09:19:54;;;;;;;7.63;0.77;;;14.30;99.90;;;;;;5047161;28;20045;-63
2022/07/27 09:22:54;;;;;;;6.18;1.00;;;14.30;99.90;;;;;;5040832;28;20120;-62
2022/07/27 09:25:25;;;;;;;4.43;1.05;;;14.30;99.90;;;;;;4994353;28;20409;-63
2022/07/27 09:27:57;;;;;;;5.65;0.98;;;14.50;99.90;;;;;;5047096;28;20191;-64
2022/07/27 09:30:26;;;;;;;10.35;0.80;;;14.70;99.90;;;;;;5045448;28;20104;-63
2022/07/27 09:33:02;;;;;;;13.25;1.25;;;14.90;99.90;;;;;;5038253;28;20049;-64
2022/07/27 09:35:32;;;;;;;3.65;0.68;;;15.00;99.90;;;;;;5047741;28;20060;-64
2022/07/27 09:38:21;;;;;;;3.85;1.67;;;15.20;99.90;;;;;;5048146;28;20115;-63
2022/07/27 09:40:50;;;;;;;3.97;0.80;;;15.40;99.70;;;;;;5047322;28;20041;-62
2022/07/27 09:43:15;;;;;;;6.05;1.00;;;15.30;98.20;;;;;;5046432;28;20044;-63
2022/07/27 09:45:42;;;;;;;;;;;15.50;98.70;;;;;;5048345;28;20037;-63
2022/07/27 09:48:16;;;;;;;4.60;1.88;;;15.80;98.40;;;;;;5047372;28;19916;-64
2022/07/27 09:50:45;;;;;;;5.93;1.05;;;16.00;98.80;;;;;;5046559;28;20049;-63
2022/07/27 09:53:16;;;;;;;4.22;1.02;;;15.90;97.30;;;;;;5047756;28;20129;-64
2022/07/27 09:55:43;;;;;;;3.58;0.70;;;15.80;95.60;;;;;;5047276;28;20474;-62
2022/07/27 09:58:09;;;;;;;2.40;0.60;;;15.90;96.10;;;;;;5047917;28;20044;-64
2022/07/27 10:00:35;;;;;;;;;;;15.80;96.90;;;;;;5049577;28;20028;-63
2022/07/27 10:03:01;;;;;;;24.20;1.35;;;15.70;97.80;;;;;;5048041;28;19977;-63
2022/07/27 10:05:27;;;;;;;8.93;1.98;;;15.60;98.00;;;;;;5047225;28;20052;-63
2022/07/27 10:07:53;;;;;;;4.75;0.88;;;15.50;98.40;;;;;;5047160;28;20072;-64
2022/07/27 10:10:21;;;;;;;5.30;0.93;;;15.30;98.30;;;;;;5045921;28;20434;-62
2022/07/27 10:12:47;;;;;;;4.30;1.00;;;15.10;99.20;;;;;;5047161;28;20082;-64
2022/07/27 10:15:13;;;;;;;4.43;0.73;;;15.10;98.80;;;;;;5047519;28;20059;-63
2022/07/27 10:17:40;;;;;;;;;;;15.10;98.10;;;;;;5047009;28;20773;-63
2022/07/27 10:20:12;;;;;;;2.42;0.70;;;15.00;98.00;;;;;;5046515;28;19920;-62
2022/07/27 10:22:55;;;;;;;8.82;0.85;;;15.10;97.90;;;;;;5038980;28;20041;-63
2022/07/27 10:25:23;;;;;;;2.92;0.68;;;15.20;98.10;;;;;;5046487;28;20048;-63
2022/07/27 10:28:09;;;;;;;4.32;0.70;;;15.10;97.90;;;;;;5046679;28;20049;-64
2022/07/27 10:30:34;;;;;;;4.78;1.02;;;15.10;97.40;;;;;;5046017;28;20374;-63
2022/07/27 10:33:12;;;;;;;;;;;15.20;97.30;;;;;;5048271;28;20098;-64
2022/07/27 10:35:38;;;;;;;4.53;1.50;;;15.30;97.60;;;;;;5047582;28;20388;-64
2022/07/27 10:38:07;;;;;;;;;;;15.40;97.80;;;;;;5047059;28;20095;-64
2022/07/27 10:40:33;;;;;;;3.20;0.70;;;15.50;97.00;;;;;;5046976;28;19917;-64
2022/07/27 10:43:15;;;;;;;;;;;15.80;97.80;;;;;;5047318;28;20037;-63
2022/07/27 10:45:49;;;;;;;1.65;0.63;;;15.80;96.30;;;;;;5046621;28;19921;-63
2022/07/27 10:48:47;;;;;;;2.45;0.52;;;15.90;96.10;;;;;;5046988;28;20124;-64
2022/07/27 10:51:15;;;;;;;4.28;0.63;;;16.20;96.50;;;;;;5002887;28;20049;-65
2022/07/27 10:53:42;;;;;;;2.40;0.55;;;16.50;96.40;;;;;;5046976;28;20500;-63
2022/07/27 10:56:09;;;;;;;2.55;0.57;;;17.00;95.70;;;;;;5046609;28;20049;-63
2022/07/27 10:58:34;;;;;;;2.95;0.75;;;17.30;94.30;;;;;;5047312;28;20033;-65
2022/07/27 11:01:01;;;;;;;;;;;17.10;94.70;;;;;;5046939;28;20557;-64
2022/07/27 11:03:28;;;;;;;3.83;0.95;;;16.90;94.20;;;;;;5046914;28;20571;-64
2022/07/27 11:05:54;;;;;;;3.42;0.80;;;16.70;95.70;;;;;;5045256;28;20094;-64
2022/07/27 11:08:31;;;;;;;4.35;0.60;;;16.40;95.70;;;;;;5043445;28;20037;-63
2022/07/27 11:10:57;;;;;;;1.70;0.50;;;16.20;95.70;;;;;;5027741;28;20053;-64
2022/07/27 11:13:24;;;;;;;5.28;0.80;;;16.10;96.70;;;;;;5046218;28;20052;-63
2022/07/27 11:15:55;;;;;;;3.80;0.80;;;16.10;95.50;;;;;;5046183;28;20051;-64
2022/07/27 11:18:25;;;;;;;4.47;1.27;;;15.90;95.70;;;;;;5045796;28;20037;-64
2022/07/27 11:20:51;;;;;;;3.72;0.85;;;15.80;95.10;;;;;;5045449;28;20040;-63
2022/07/27 11:23:20;;;;;;;;;;;15.70;96.80;;;;;;5046063;28;20041;-63
2022/07/27 11:26:00;;;;;;;5.60;0.82;;;15.70;95.40;;;;;;5046049;28;20284;-63
2022/07/27 11:28:33;;;;;;;5.40;0.90;;;16.00;94.90;;;;;;5045788;28;20583;-63
2022/07/27 11:30:59;;;;;;;4.28;0.70;;;16.20;95.00;;;;;;5037085;28;20041;-63
2022/07/27 11:33:25;;;;;;;3.40;0.55;;;16.30;95.00;;;;;;5025714;28;20041;-64
2022/07/27 11:35:54;;;;;;;;;;;16.50;95.00;;;;;;5043954;28;20040;-64
2022/07/27 11:38:20;;;;;;;5.03;0.82;;;16.50;93.90;;;;;;5045781;28;19968;-64
2022/07/27 11:40:50;;;;;;;;;;;16.30;93.50;;;;;;5045725;28;20138;-64
2022/07/27 11:43:39;;;;;;;3.42;0.90;;;16.20;94.50;;;;;;5046120;28;20015;-65
2022/07/27 11:46:16;;;;;;;3.03;0.50;;;16.10;93.70;;;;;;5045799;28;20049;-63
2022/07/27 11:48:54;;;;;;;2.58;0.65;;;16.10;95.00;;;;;;5045816;28;20076;-63
2022/07/27 11:51:20;;;;;;;3.38;0.50;;;16.00;94.80;;;;;;5035790;28;20044;-64
2022/07/27 11:53:46;;;;;;;3.08;0.82;;;15.90;92.90;;;;;;5045736;28;20058;-62
2022/07/27 11:56:11;;;;;;;;;;;15.80;93.20;;;;;;5042779;28;20137;-62
2022/07/27 11:59:10;;;;;;;3.53;0.47;;;16.00;93.90;;;;;;5045982;28;19964;-62
2022/07/27 12:01:48;;;;;;;4.78;0.93;;;16.40;93.30;;;;;;5025494;28;20041;-63
2022/07/27 12:04:17;;;;;;;3.10;0.65;;;16.20;92.70;;;;;;5025904;28;20056;-62
2022/07/27 12:06:46;;;;;;;5.95;1.10;;;16.20;93.10;;;;;;5029614;28;20099;-63
2022/07/27 12:09:14;;;;;;;4.55;0.90;;;16.20;95.70;;;;;;5045383;28;20069;-63
2022/07/27 12:11:49;;;;;;;3.13;0.80;;;16.30;94.60;;;;;;5045780;28;20562;-63
2022/07/27 12:14:15;;;;;;;5.05;1.00;;;16.40;94.60;;;;;;5047219;28;20037;-63
2022/07/27 12:16:41;;;;;;;6.38;1.02;;;16.50;94.70;;;;;;5047949;28;20064;-61
2022/07/27 12:19:07;;;;;;;;;;;16.60;92.90;;;;;;5049680;28;20049;-64
2022/07/27 12:21:32;;;;;;;3.00;0.93;;;16.70;93.10;;;;;;5040234;28;19924;-62
2022/07/27 12:23:58;;;;;;;8.52;1.15;;;16.90;92.50;;;;;;5029551;28;20486;-63
2022/07/27 12:26:24;;;;;;;3.58;1.20;;;16.90;92.60;;;;;;5043380;28;20095;-63
2022/07/27 12:29:16;;;;;;;;;;;17.00;92.20;;;;;;5050490;28;20037;-63
2022/07/27 12:31:48;;;;;;;2.53;0.70;;;16.80;92.00;;;;;;5042187;28;19917;-63
2022/07/27 12:34:14;;;;;;;2.20;0.50;;;17.00;93.30;;;;;;5049331;28;20125;-63
2022/07/27 12:36:40;;;;;;;;;;;17.10;91.90;;;;;;5048702;28;20068;-63
2022/07/27 12:39:06;;;;;;;1.90;0.70;;;17.30;91.30;;;;;;5048855;28;19925;-63
2022/07/27 12:41:36;;;;;;;4.53;1.00;;;17.60;90.80;;;;;;5048134;28;20033;-63
2022/07/27 12:44:09;;;;;;;4.28;1.25;;;17.40;89.70;;;;;;5048473;28;20088;-63
2022/07/27 12:46:51;;;;;;;5.70;2.05;;;17.40;90.60;;;;;;5048381;28;20052;-64
2022/07/27 12:49:17;;;;;;;4.72;1.38;;;17.40;89.60;;;;;;5049173;28;20512;-63
2022/07/27 12:51:42;;;;;;;;;;;17.10;90.50;;;;;;5047662;28;20128;-63
2022/07/27 12:54:08;;;;;;;8.00;0.73;;;16.80;88.60;;;;;;5048419;28;19921;-62
2022/07/27 12:56:34;;;;;;;;;;;16.60;90.60;;;;;;5048853;28;20045;-63
2022/07/27 12:59:01;;;;;;;3.25;0.70;;;16.60;90.60;;;;;;5048165;28;19996;-62
2022/07/27 13:01:26;;;;;;;1.83;0.70;;;16.70;91.70;;;;;;5048055;28;20041;-63
2022/07/27 13:03:52;;;;;;;;;;;16.90;91.60;;;;;;5048891;28;20041;-63
2022/07/27 13:06:17;;;;;;;3.00;0.60;;;16.80;90.40;;;;;;5044818;28;19930;-62
2022/07/27 13:08:43;;;;;;;7.03;1.10;;;16.70;92.40;;;;;;5048250;28;20040;-62
2022/07/27 13:11:08;;;;;;;;;;;16.80;91.90;;;;;;5048157;28;20037;-63
2022/07/27 13:13:34;;;;;;;4.05;0.55;;;16.80;90.60;;;;;;5048362;28;20283;-63
2022/07/27 13:15:59;;;;;;;;;;;17.00;91.00;;;;;;5048751;28;20044;-63
2022/07/27 13:18:25;;;;;;;4.72;1.05;;;17.20;90.60;;;;;;5048638;28;19920;-62